Time;durP1;ratioP1;P1;durP2;ratioP2;P2;SDS_P1;SDS_P2;PMS_P1;PMS_P2;Temp;Humidity;BMP_temperature;BMP_pressure;BME280_temperature;BME280_humidity;BME280_pressure;Samples;Min_cycle;Max_cycle;Signal;HPM_P1;HPM_P2
2023/07/14 00:01:35;;;;;;;4.00;1.10;;;16.40;99.90;;;;;;5072125;28;20028;-66
2023/07/14 00:04:01;;;;;;;11.55;1.73;;;16.40;99.90;;;;;;5090604;28;20032;-67
2023/07/14 00:06:27;;;;;;;2.67;1.10;;;16.40;99.90;;;;;;5082165;28;20032;-67
2023/07/14 00:08:53;;;;;;;2.87;1.20;;;16.40;99.90;;;;;;5086413;28;20032;-67
2023/07/14 00:11:22;;;;;;;2.50;1.20;;;16.40;99.90;;;;;;5091273;28;20316;-67
2023/07/14 00:13:50;;;;;;;4.90;1.63;;;16.40;99.90;;;;;;5088882;28;20619;-67
2023/07/14 00:16:19;;;;;;;8.32;1.58;;;16.30;99.90;;;;;;5087342;28;20028;-67
2023/07/14 00:18:45;;;;;;;4.90;1.35;;;16.30;99.90;;;;;;5083000;28;20033;-66
2023/07/14 00:21:18;;;;;;;6.03;1.35;;;16.30;99.90;;;;;;5086465;28;20028;-66
2023/07/14 00:23:45;;;;;;;5.80;1.90;;;16.40;99.90;;;;;;5087413;28;20024;-67
2023/07/14 00:26:19;;;;;;;1.50;1.08;;;16.30;99.90;;;;;;5087394;28;20056;-67
2023/07/14 00:28:48;;;;;;;4.30;1.65;;;16.30;99.90;;;;;;5092425;28;20024;-67
2023/07/14 00:31:16;;;;;;;2.30;1.15;;;16.20;99.90;;;;;;5089168;28;20107;-67
2023/07/14 00:33:44;;;;;;;3.88;1.42;;;16.10;99.90;;;;;;5090179;28;20056;-67
2023/07/14 00:36:11;;;;;;;3.28;1.73;;;16.10;99.90;;;;;;5093694;28;20107;-67
2023/07/14 00:38:37;;;;;;;;;;;16.10;99.90;;;;;;5093919;28;20103;-67
2023/07/14 00:41:08;;;;;;;3.00;1.60;;;16.10;99.90;;;;;;5088371;28;20296;-67
2023/07/14 00:43:35;;;;;;;4.28;1.50;;;16.20;99.90;;;;;;5089743;28;20063;-67
2023/07/14 00:46:01;;;;;;;;;;;16.20;99.90;;;;;;5089512;28;20024;-67
2023/07/14 00:48:28;;;;;;;;;;;16.20;99.90;;;;;;5095095;28;19948;-66
2023/07/14 00:51:11;;;;;;;3.40;1.38;;;16.20;99.90;;;;;;5091174;28;19916;-66
2023/07/14 00:53:40;;;;;;;3.92;1.60;;;16.20;99.90;;;;;;5087864;28;20051;-66
2023/07/14 00:56:14;;;;;;;3.92;1.67;;;16.20;99.90;;;;;;5087815;28;20021;-67
2023/07/14 00:58:49;;;;;;;7.47;1.70;;;16.20;99.90;;;;;;5085211;28;20070;-92
2023/07/14 01:01:22;;;;;;;5.55;2.33;;;16.20;99.90;;;;;;5087438;28;20070;-67
2023/07/14 01:03:51;;;;;;;5.85;1.98;;;16.20;99.90;;;;;;5088838;28;20021;-67
2023/07/14 01:06:39;;;;;;;4.63;1.80;;;16.20;99.90;;;;;;5088289;28;20029;-67
2023/07/14 01:09:12;;;;;;;4.25;1.70;;;16.20;99.90;;;;;;5088296;28;20035;-67
2023/07/14 01:11:54;;;;;;;11.65;2.10;;;16.20;99.90;;;;;;5088817;28;20071;-67
2023/07/14 01:14:24;;;;;;;5.72;1.80;;;16.20;99.90;;;;;;5088105;28;20024;-67
2023/07/14 01:16:53;;;;;;;8.43;2.08;;;16.20;99.90;;;;;;5090860;28;20048;-92
2023/07/14 01:19:55;;;;;;;6.20;2.00;;;16.20;99.90;;;;;;5090191;28;20054;-67
2023/07/14 01:22:45;;;;;;;10.77;2.22;;;16.20;99.90;;;;;;5089340;28;20406;-67
2023/07/14 01:25:20;;;;;;;2.83;1.65;;;16.20;99.90;;;;;;5091001;28;20682;-66
2023/07/14 01:27:47;;;;;;;5.60;1.92;;;16.20;99.90;;;;;;5090165;28;20035;-67
2023/07/14 01:30:14;;;;;;;3.90;1.83;;;16.20;99.90;;;;;;5081950;28;20323;-67
2023/07/14 01:32:47;;;;;;;5.50;2.05;;;16.20;99.90;;;;;;5089528;28;20031;-67
2023/07/14 01:35:14;;;;;;;9.13;2.20;;;16.20;99.90;;;;;;5089599;28;20117;-67
2023/07/14 01:37:41;;;;;;;3.47;1.95;;;16.20;99.90;;;;;;5089378;28;20418;-67
2023/07/14 01:40:12;;;;;;;6.90;1.92;;;16.20;99.90;;;;;;5092953;28;20028;-66
2023/07/14 01:42:43;;;;;;;5.50;2.20;;;16.20;99.90;;;;;;5075629;28;20032;-67
2023/07/14 01:45:14;;;;;;;3.97;2.03;;;16.20;99.90;;;;;;5089161;28;20036;-67
2023/07/14 01:47:43;;;;;;;4.55;2.13;;;16.20;99.90;;;;;;5087449;28;20473;-66
2023/07/14 01:50:25;;;;;;;5.00;1.80;;;16.20;99.90;;;;;;5090937;28;20077;-67
2023/07/14 01:52:55;;;;;;;6.93;1.88;;;16.20;99.90;;;;;;5088207;28;20756;-66
2023/07/14 01:55:23;;;;;;;3.25;1.70;;;16.20;99.90;;;;;;5092343;28;20084;-94
2023/07/14 01:57:54;;;;;;;4.68;1.60;;;16.20;99.90;;;;;;5091940;28;20023;-67
2023/07/14 02:00:21;;;;;;;5.88;1.92;;;16.10;99.90;;;;;;5090562;28;20059;-66
2023/07/14 02:02:50;;;;;;;3.65;1.80;;;16.10;99.90;;;;;;5086073;28;20043;-67
2023/07/14 02:05:25;;;;;;;4.75;1.90;;;16.10;99.90;;;;;;5086972;28;20044;-67
2023/07/14 02:07:53;;;;;;;12.17;2.07;;;16.10;99.90;;;;;;5091026;28;20039;-67
2023/07/14 02:10:20;;;;;;;10.68;1.73;;;16.20;99.90;;;;;;5086755;28;20329;-67
2023/07/14 02:12:48;;;;;;;6.65;1.45;;;16.20;99.90;;;;;;5089730;28;20031;-67
2023/07/14 02:15:24;;;;;;;5.60;1.77;;;16.20;99.90;;;;;;5083851;28;20028;-67
2023/07/14 02:17:52;;;;;;;6.30;1.70;;;16.20;99.90;;;;;;5084992;28;20864;-67
2023/07/14 02:20:29;;;;;;;4.63;2.08;;;16.20;99.90;;;;;;5084934;28;20029;-66
2023/07/14 02:22:58;;;;;;;7.38;1.83;;;16.20;99.90;;;;;;5090177;28;20360;-67
2023/07/14 02:25:30;;;;;;;5.35;2.47;;;16.20;99.90;;;;;;5088403;28;20418;-67
2023/07/14 02:27:56;;;;;;;4.85;1.80;;;16.20;99.90;;;;;;5093827;28;20771;-67
2023/07/14 02:30:25;;;;;;;4.43;2.23;;;16.20;99.90;;;;;;5067811;28;20028;-67
2023/07/14 02:33:13;;;;;;;5.88;2.25;;;16.20;99.90;;;;;;5070692;28;20032;-67
2023/07/14 02:36:13;;;;;;;4.00;2.05;;;16.20;99.90;;;;;;5088445;28;20024;-67
2023/07/14 02:38:40;;;;;;;9.00;2.17;;;16.10;99.90;;;;;;5084263;28;20341;-67
2023/07/14 02:41:32;;;;;;;4.30;2.75;;;16.10;99.90;;;;;;5088934;28;20107;-67
2023/07/14 02:44:04;;;;;;;7.47;1.98;;;16.10;99.90;;;;;;5086314;28;20027;-67
2023/07/14 02:46:50;;;;;;;3.50;1.80;;;16.10;99.90;;;;;;5087635;28;20020;-68
2023/07/14 02:49:16;;;;;;;5.95;2.28;;;16.10;99.90;;;;;;5087250;28;20036;-67
2023/07/14 02:51:42;;;;;;;4.73;2.20;;;16.00;99.90;;;;;;5086202;28;20322;-67
2023/07/14 02:54:08;;;;;;;9.13;2.83;;;16.00;99.90;;;;;;5063993;28;20027;-67
2023/07/14 02:56:35;;;;;;;6.68;2.33;;;16.00;99.90;;;;;;5087546;28;20428;-67
2023/07/14 02:59:02;;;;;;;3.80;2.13;;;16.00;99.90;;;;;;5079494;28;20062;-67
2023/07/14 03:01:32;;;;;;;8.15;2.20;;;15.90;99.90;;;;;;5085751;28;20048;-91
2023/07/14 03:03:59;;;;;;;3.63;2.20;;;15.90;99.90;;;;;;5080783;28;20359;-67
2023/07/14 03:06:26;;;;;;;4.70;2.85;;;15.80;99.90;;;;;;5085020;28;20111;-66
2023/07/14 03:08:52;;;;;;;6.13;2.67;;;15.80;99.90;;;;;;5087571;28;20043;-67
2023/07/14 03:11:18;;;;;;;5.03;2.03;;;15.80;99.90;;;;;;5071627;28;20379;-67
2023/07/14 03:13:48;;;;;;;3.72;2.25;;;15.80;99.90;;;;;;5084846;28;20043;-66
2023/07/14 03:16:15;;;;;;;11.02;2.70;;;15.80;99.90;;;;;;5080742;28;20363;-67
2023/07/14 03:18:41;;;;;;;3.88;2.25;;;15.80;99.90;;;;;;5082664;28;20099;-67
2023/07/14 03:21:08;;;;;;;7.32;2.45;;;15.70;99.90;;;;;;5086288;28;20030;-67
2023/07/14 03:23:34;;;;;;;3.42;2.45;;;15.70;99.90;;;;;;5085846;28;20427;-66
2023/07/14 03:26:06;;;;;;;7.63;3.15;;;15.70;99.90;;;;;;5083241;28;20024;-91
2023/07/14 03:28:34;;;;;;;8.15;2.70;;;15.70;99.90;;;;;;5070530;28;20032;-67
2023/07/14 03:31:01;;;;;;;4.88;2.55;;;15.70;99.90;;;;;;5084936;28;20430;-66
2023/07/14 03:33:30;;;;;;;6.40;2.25;;;15.70;99.90;;;;;;5088574;28;20097;-78
2023/07/14 03:36:04;;;;;;;8.93;3.15;;;15.70;99.90;;;;;;5075980;28;20476;-67
2023/07/14 03:38:30;;;;;;;4.05;2.75;;;15.70;99.90;;;;;;5090286;28;20441;-67
2023/07/14 03:40:56;;;;;;;5.82;3.08;;;15.60;99.90;;;;;;5088868;28;20107;-66
2023/07/14 03:43:22;;;;;;;5.82;2.70;;;15.60;99.90;;;;;;5073377;28;20040;-67
2023/07/14 03:45:48;;;;;;;5.47;2.20;;;15.60;99.90;;;;;;5089667;28;20081;-66
2023/07/14 03:48:14;;;;;;;5.40;2.13;;;15.60;99.90;;;;;;5087187;28;20044;-66
2023/07/14 03:50:40;;;;;;;6.37;2.67;;;15.60;99.90;;;;;;5085328;28;20384;-67
2023/07/14 03:53:06;;;;;;;4.78;2.72;;;15.60;99.90;;;;;;5088246;28;21069;-67
2023/07/14 03:55:32;;;;;;;4.47;2.63;;;15.60;99.90;;;;;;5086031;28;20041;-66
2023/07/14 03:57:58;;;;;;;3.78;1.88;;;15.60;99.90;;;;;;5087594;28;20032;-66
2023/07/14 04:00:24;;;;;;;5.77;2.70;;;15.60;99.90;;;;;;5082353;28;20024;-66
2023/07/14 04:02:50;;;;;;;10.02;3.05;;;15.60;99.90;;;;;;5088785;28;20032;-66
2023/07/14 04:05:16;;;;;;;5.72;2.28;;;15.60;99.90;;;;;;5086692;28;20116;-67
2023/07/14 04:07:43;;;;;;;7.50;2.77;;;15.60;99.90;;;;;;5074184;28;20405;-85
2023/07/14 04:10:11;;;;;;;4.85;2.22;;;15.60;99.90;;;;;;5078436;28;20028;-66
2023/07/14 04:12:37;;;;;;;5.60;2.10;;;15.60;99.90;;;;;;5086946;28;20028;-66
2023/07/14 04:15:03;;;;;;;5.30;2.58;;;15.50;99.90;;;;;;5090351;28;20362;-66
2023/07/14 04:17:30;;;;;;;8.00;2.35;;;15.50;99.90;;;;;;5090772;28;20054;-67
2023/07/14 04:19:56;;;;;;;8.90;2.85;;;15.50;99.90;;;;;;5094906;28;20070;-66
2023/07/14 04:22:23;;;;;;;4.17;2.63;;;15.50;99.90;;;;;;5088477;28;20442;-67
2023/07/14 04:24:48;;;;;;;;;;;15.60;99.90;;;;;;5089553;28;20285;-78
2023/07/14 04:27:15;;;;;;;6.10;2.67;;;15.50;99.90;;;;;;5093665;28;19908;-66
2023/07/14 04:29:42;;;;;;;6.22;2.08;;;15.50;99.90;;;;;;5090537;28;20442;-67
2023/07/14 04:32:08;;;;;;;8.85;2.65;;;15.50;99.90;;;;;;5097012;28;20032;-67
2023/07/14 04:34:36;;;;;;;6.32;2.28;;;15.50;99.90;;;;;;5088087;28;20119;-67
2023/07/14 04:37:03;;;;;;;4.90;2.13;;;15.50;99.90;;;;;;5090141;28;20078;-67
2023/07/14 04:39:29;;;;;;;;;;;15.50;99.90;;;;;;5075224;28;20023;-66
2023/07/14 04:41:55;;;;;;;3.15;2.00;;;15.50;99.90;;;;;;5094425;28;20225;-66
2023/07/14 04:44:23;;;;;;;2.60;1.90;;;15.50;99.90;;;;;;5092107;28;20033;-67
2023/07/14 04:46:49;;;;;;;7.10;2.03;;;15.50;99.90;;;;;;5089136;28;20042;-67
2023/07/14 04:49:16;;;;;;;4.65;2.40;;;15.50;99.90;;;;;;5076474;28;20116;-66
2023/07/14 04:51:42;;;;;;;4.88;2.08;;;15.50;99.90;;;;;;5087074;28;20032;-85
2023/07/14 04:54:09;;;;;;;6.53;2.10;;;15.50;99.90;;;;;;5088246;28;20066;-67
2023/07/14 04:56:36;;;;;;;9.95;2.50;;;15.60;99.90;;;;;;5090937;28;20108;-66
2023/07/14 04:59:05;;;;;;;5.72;2.40;;;15.60;99.90;;;;;;5090881;28;20024;-66
2023/07/14 05:01:31;;;;;;;5.43;1.92;;;15.60;99.90;;;;;;5089538;28;21416;-67
2023/07/14 05:03:57;;;;;;;4.15;2.13;;;15.60;99.90;;;;;;5087700;28;20055;-89
2023/07/14 05:06:23;;;;;;;5.03;2.00;;;15.60;99.90;;;;;;5089276;28;20043;-65
2023/07/14 05:08:49;;;;;;;3.38;1.98;;;15.70;99.90;;;;;;5084198;28;20025;-67
2023/07/14 05:11:15;;;;;;;7.93;3.00;;;15.70;99.90;;;;;;5073509;28;20042;-67
2023/07/14 05:13:42;;;;;;;8.82;2.67;;;15.70;99.90;;;;;;5093440;28;20077;-67
2023/07/14 05:16:08;;;;;;;5.70;2.00;;;15.80;99.90;;;;;;5090983;28;20024;-66
2023/07/14 05:18:34;;;;;;;6.90;2.03;;;15.80;99.90;;;;;;5092908;28;20043;-67
2023/07/14 05:21:04;;;;;;;9.07;2.17;;;15.90;99.90;;;;;;5087325;28;20273;-66
2023/07/14 05:23:31;;;;;;;4.82;1.50;;;15.90;99.90;;;;;;5093186;28;20032;-66
2023/07/14 05:25:58;;;;;;;7.03;2.15;;;15.90;99.90;;;;;;5090793;28;20103;-90
2023/07/14 05:28:24;;;;;;;4.72;2.13;;;15.90;99.90;;;;;;5089116;28;20021;-67
2023/07/14 05:30:51;;;;;;;4.60;2.58;;;16.00;99.90;;;;;;5094112;28;20066;-66
2023/07/14 05:33:18;;;;;;;3.88;1.80;;;16.00;99.90;;;;;;5090595;28;20079;-66
2023/07/14 05:35:45;;;;;;;5.43;2.20;;;16.10;99.90;;;;;;5090561;28;20024;-67
2023/07/14 05:38:12;;;;;;;8.73;2.38;;;16.20;99.90;;;;;;5089630;28;20487;-66
2023/07/14 05:40:38;;;;;;;8.15;2.65;;;16.10;99.90;;;;;;5087197;28;20027;-66
2023/07/14 05:43:04;;;;;;;6.30;2.00;;;16.20;99.90;;;;;;5089070;28;20025;-65
2023/07/14 05:45:30;;;;;;;6.07;1.90;;;16.20;99.90;;;;;;5088135;28;20075;-86
2023/07/14 05:47:56;;;;;;;4.47;1.90;;;16.20;99.90;;;;;;5067982;28;20058;-66
2023/07/14 05:50:22;;;;;;;8.57;2.58;;;16.20;99.90;;;;;;5089706;28;20037;-67
2023/07/14 05:52:48;;;;;;;8.27;2.70;;;16.30;99.90;;;;;;5087615;28;20040;-81
2023/07/14 05:55:14;;;;;;;5.70;2.78;;;16.30;99.90;;;;;;5071707;28;20029;-67
2023/07/14 05:57:40;;;;;;;6.63;2.80;;;16.40;99.90;;;;;;5086052;28;20280;-66
2023/07/14 06:00:16;;;;;;;6.20;2.80;;;16.40;99.90;;;;;;5086440;28;20498;-67
2023/07/14 06:02:47;;;;;;;4.07;2.70;;;16.50;99.90;;;;;;5082328;28;20131;-66
2023/07/14 06:05:13;;;;;;;4.28;2.35;;;16.50;99.90;;;;;;5086462;28;20107;-66
2023/07/14 06:07:40;;;;;;;;;;;16.60;99.90;;;;;;5069379;28;20035;-67
2023/07/14 06:10:08;;;;;;;5.75;3.33;;;16.60;99.90;;;;;;5083316;28;19908;-66
2023/07/14 06:12:34;;;;;;;12.13;2.60;;;16.70;99.90;;;;;;5087375;28;20094;-66
2023/07/14 06:15:01;;;;;;;8.73;3.22;;;16.70;99.90;;;;;;5081907;28;20012;-66
2023/07/14 06:17:27;;;;;;;6.65;2.95;;;16.80;99.90;;;;;;5092309;28;20021;-66
2023/07/14 06:19:53;;;;;;;12.25;3.65;;;16.80;99.90;;;;;;5086674;28;20020;-68
2023/07/14 06:22:20;;;;;;;8.43;3.40;;;16.80;99.90;;;;;;5089213;28;20038;-66
2023/07/14 06:24:48;;;;;;;10.95;3.22;;;16.90;99.90;;;;;;5090240;28;20024;-67
2023/07/14 06:27:15;;;;;;;10.10;3.33;;;16.90;99.90;;;;;;5091579;28;20016;-67
2023/07/14 06:29:41;;;;;;;17.25;3.70;;;16.90;99.90;;;;;;5083545;28;20032;-66
2023/07/14 06:32:07;;;;;;;9.43;3.50;;;17.00;99.90;;;;;;5085719;28;20032;-85
2023/07/14 06:34:33;;;;;;;14.48;3.50;;;17.00;99.90;;;;;;5093473;28;20077;-66
2023/07/14 06:36:59;;;;;;;6.85;3.42;;;17.10;99.90;;;;;;5082565;28;20772;-67
2023/07/14 06:39:25;;;;;;;8.20;3.23;;;17.10;99.90;;;;;;5081062;28;20032;-66
2023/07/14 06:41:51;;;;;;;9.93;3.37;;;17.20;99.90;;;;;;5077599;28;20406;-66
2023/07/14 06:44:17;;;;;;;11.43;3.77;;;17.30;99.90;;;;;;5084368;28;20295;-66
2023/07/14 06:46:43;;;;;;;7.63;3.73;;;17.30;99.90;;;;;;5071576;28;20591;-66
2023/07/14 06:49:10;;;;;;;4.40;2.97;;;17.40;99.90;;;;;;5082346;28;20445;-66
2023/07/14 06:51:36;;;;;;;10.70;3.78;;;17.50;99.90;;;;;;5075247;28;20117;-66
2023/07/14 06:54:02;;;;;;;13.40;4.13;;;17.60;99.90;;;;;;5092633;28;20101;-66
2023/07/14 06:56:28;;;;;;;10.15;4.00;;;17.60;99.90;;;;;;5094542;28;20020;-66
2023/07/14 06:58:53;;;;;;;10.30;4.43;;;17.70;99.90;;;;;;5081149;28;20407;-66
2023/07/14 07:01:20;;;;;;;7.27;4.07;;;17.80;99.90;;;;;;5093905;28;20115;-66
2023/07/14 07:03:46;;;;;;;9.15;4.80;;;17.90;99.90;;;;;;5093406;28;20440;-66
2023/07/14 07:06:15;;;;;;;7.63;4.33;;;18.10;99.90;;;;;;5092332;28;20028;-66
2023/07/14 07:08:41;;;;;;;7.18;4.20;;;18.20;99.90;;;;;;5087308;28;20028;-85
2023/07/14 07:11:10;;;;;;;12.48;4.93;;;18.30;99.90;;;;;;5088157;28;20100;-65
2023/07/14 07:13:35;;;;;;;9.57;4.60;;;18.30;99.90;;;;;;5081977;28;20026;-78
2023/07/14 07:16:01;;;;;;;7.53;4.30;;;18.40;99.90;;;;;;5087692;28;20110;-86
2023/07/14 07:18:28;;;;;;;8.57;4.85;;;18.50;99.90;;;;;;5078037;28;20100;-66
2023/07/14 07:20:55;;;;;;;12.98;5.50;;;18.60;99.90;;;;;;5088060;28;20031;-68
2023/07/14 07:23:21;;;;;;;13.45;5.43;;;18.60;99.90;;;;;;5072183;28;20056;-66
2023/07/14 07:25:54;;;;;;;9.32;5.07;;;18.60;99.90;;;;;;5083476;28;20033;-66
2023/07/14 07:28:20;;;;;;;11.70;4.30;;;18.60;99.90;;;;;;5076781;28;20112;-66
2023/07/14 07:30:47;;;;;;;8.20;4.32;;;18.60;99.90;;;;;;5095540;28;20118;-66
2023/07/14 07:33:14;;;;;;;10.82;4.63;;;18.70;99.90;;;;;;5090873;28;20035;-71
2023/07/14 07:35:41;;;;;;;8.05;5.15;;;18.90;99.90;;;;;;5089546;28;20027;-73
2023/07/14 07:38:10;;;;;;;8.35;4.85;;;19.00;99.90;;;;;;5090401;28;20073;-87
2023/07/14 07:40:37;;;;;;;8.77;4.57;;;19.10;99.90;;;;;;5091705;28;20022;-67
2023/07/14 07:43:03;;;;;;;7.53;4.22;;;19.20;99.90;;;;;;5090979;28;20373;-66
2023/07/14 07:45:29;;;;;;;14.07;4.00;;;19.30;99.90;;;;;;5093302;28;20024;-87
2023/07/14 07:47:55;;;;;;;10.85;5.45;;;19.50;99.90;;;;;;5089542;28;20036;-82
2023/07/14 07:50:21;;;;;;;16.75;5.57;;;19.50;99.90;;;;;;5090799;28;20037;-85
2023/07/14 07:52:47;;;;;;;14.10;4.70;;;19.50;99.90;;;;;;5091415;28;20019;-66
2023/07/14 07:55:13;;;;;;;11.10;5.22;;;19.50;99.90;;;;;;5088497;28;20024;-68
2023/07/14 07:57:40;;;;;;;7.85;5.20;;;19.50;99.90;;;;;;5081681;28;20304;-83
2023/07/14 08:00:06;;;;;;;;;;;19.40;99.90;;;;;;5090183;28;20020;-66
2023/07/14 08:02:35;;;;;;;14.27;4.80;;;19.50;99.90;;;;;;5086201;28;19934;-66
2023/07/14 08:05:02;;;;;;;11.25;5.38;;;19.50;99.90;;;;;;5085944;28;20469;-85
2023/07/14 08:07:28;;;;;;;9.75;5.22;;;19.30;99.90;;;;;;5088020;28;20028;-83
2023/07/14 08:09:53;;;;;;;14.30;5.72;;;19.40;99.90;;;;;;5086326;28;20032;-66
2023/07/14 08:12:19;;;;;;;12.83;5.50;;;19.30;99.90;;;;;;5086899;28;20043;-65
2023/07/14 08:14:53;;;;;;;16.27;5.87;;;19.30;99.90;;;;;;5085321;28;20266;-67
2023/07/14 08:17:26;;;;;;;10.13;5.90;;;19.40;99.90;;;;;;5092295;28;20292;-66
2023/07/14 08:19:52;;;;;;;9.85;5.15;;;19.40;99.90;;;;;;5085702;28;20060;-86
2023/07/14 08:22:19;;;;;;;8.73;5.20;;;19.50;99.90;;;;;;5090969;28;20035;-84
2023/07/14 08:24:45;;;;;;;13.52;6.13;;;19.60;99.90;;;;;;5092425;28;20415;-65
2023/07/14 08:27:11;;;;;;;14.27;5.83;;;19.60;99.90;;;;;;5088963;28;20043;-66
2023/07/14 08:29:38;;;;;;;14.88;6.30;;;19.50;99.90;;;;;;5084667;28;20035;-83
2023/07/14 08:32:04;;;;;;;12.55;5.93;;;19.70;99.90;;;;;;5094801;28;20389;-67
2023/07/14 08:34:30;;;;;;;9.50;5.15;;;19.80;99.90;;;;;;5085280;28;20318;-66
2023/07/14 08:36:56;;;;;;;10.98;6.07;;;20.00;99.90;;;;;;5090357;28;20028;-66
2023/07/14 08:39:23;;;;;;;11.23;5.15;;;20.20;99.90;;;;;;5078638;28;20418;-85
2023/07/14 08:41:55;;;;;;;10.95;6.00;;;20.40;99.90;;;;;;5077693;28;20057;-65
2023/07/14 08:44:52;;;;;;;9.98;5.45;;;20.40;99.90;;;;;;5096566;28;20020;-66
2023/07/14 08:47:50;;;;;;;11.23;5.25;;;20.30;99.90;;;;;;5077231;28;20040;-66
2023/07/14 08:50:22;;;;;;;14.88;5.85;;;20.30;99.90;;;;;;5084281;28;20358;-66
2023/07/14 08:52:50;;;;;;;9.73;5.82;;;20.30;99.90;;;;;;5094505;28;20377;-93
2023/07/14 08:55:22;;;;;;;10.35;5.00;;;20.20;99.90;;;;;;5093983;28;20020;-87
2023/07/14 08:58:14;;;;;;;13.85;5.72;;;20.20;99.90;;;;;;5089489;28;20024;-66
2023/07/14 09:00:54;;;;;;;11.38;4.38;;;20.20;99.90;;;;;;5091669;28;20111;-87
2023/07/14 09:03:48;;;;;;;10.00;4.80;;;20.40;99.90;;;;;;5087557;28;20317;-66
2023/07/14 09:06:17;;;;;;;12.32;5.22;;;20.50;99.90;;;;;;5081140;28;20039;-84
2023/07/14 09:08:44;;;;;;;9.30;4.80;;;20.60;99.90;;;;;;5093661;28;20326;-67
2023/07/14 09:11:45;;;;;;;9.63;4.53;;;20.60;99.90;;;;;;5083978;28;20031;-82
2023/07/14 09:14:26;;;;;;;7.97;4.28;;;20.70;99.90;;;;;;5082516;28;20293;-66
2023/07/14 09:16:58;;;;;;;7.57;4.38;;;20.80;99.90;;;;;;5095003;28;20020;-66
2023/07/14 09:19:59;;;;;;;8.00;4.28;;;20.80;99.90;;;;;;5091979;28;20043;-66
2023/07/14 09:23:09;;;;;;;12.35;4.35;;;21.10;99.90;;;;;;5036660;28;20040;-67
2023/07/14 09:25:45;;;;;;;8.20;4.25;;;21.20;99.90;;;;;;5058009;28;20039;-66
2023/07/14 09:28:37;;;;;;;11.57;4.72;;;21.20;99.90;;;;;;5089076;28;20031;-66
2023/07/14 09:31:25;;;;;;;7.00;3.85;;;21.00;99.90;;;;;;5061464;28;20420;-66
2023/07/14 09:33:57;;;;;;;8.10;4.30;;;20.80;99.90;;;;;;5091993;28;20028;-85
2023/07/14 09:36:23;;;;;;;8.68;4.32;;;20.60;99.90;;;;;;5096557;28;20020;-78
2023/07/14 09:39:13;;;;;;;9.98;4.32;;;20.70;99.90;;;;;;5088256;28;20016;-67
2023/07/14 09:41:40;;;;;;;7.50;4.43;;;20.70;99.90;;;;;;5092488;28;20024;-79
2023/07/14 09:44:10;;;;;;;8.07;4.82;;;20.90;99.90;;;;;;5092975;28;20323;-67
2023/07/14 09:46:39;;;;;;;10.07;4.40;;;20.90;99.90;;;;;;5088733;28;20043;-67
2023/07/14 09:49:13;;;;;;;4.85;3.30;;;21.00;99.90;;;;;;5088833;28;20108;-67
2023/07/14 09:51:39;;;;;;;10.95;3.75;;;21.10;99.90;;;;;;5089099;28;20043;-66
2023/07/14 09:54:10;;;;;;;4.90;3.10;;;21.10;99.90;;;;;;5084379;28;20020;-66
2023/07/14 09:56:42;;;;;;;6.47;3.47;;;21.30;99.90;;;;;;5087944;28;20032;-66
2023/07/14 09:59:21;;;;;;;9.15;4.10;;;21.50;99.90;;;;;;5089037;28;20043;-67
2023/07/14 10:01:56;;;;;;;8.73;3.10;;;21.70;99.90;;;;;;5086835;28;20028;-81
2023/07/14 10:04:28;;;;;;;6.90;3.58;;;21.80;99.90;;;;;;5076260;28;20162;-66
2023/07/14 10:06:54;;;;;;;10.45;3.72;;;21.90;99.90;;;;;;5086656;28;20068;-67
2023/07/14 10:09:23;;;;;;;7.43;3.25;;;21.90;99.90;;;;;;5086597;28;20367;-65
2023/07/14 10:11:52;;;;;;;9.93;4.05;;;21.90;99.90;;;;;;5085728;28;20036;-66
2023/07/14 10:14:40;;;;;;;7.95;3.45;;;21.90;99.90;;;;;;5087005;28;20017;-68
2023/07/14 10:17:23;;;;;;;7.15;3.83;;;21.90;99.90;;;;;;5084210;28;20040;-67
2023/07/14 10:19:51;;;;;;;9.75;3.67;;;21.90;99.90;;;;;;5087383;28;20069;-67
2023/07/14 10:22:24;;;;;;;5.72;3.58;;;21.80;99.90;;;;;;5083042;28;20036;-66
2023/07/14 10:24:58;;;;;;;8.05;3.30;;;21.90;99.90;;;;;;5075605;28;20048;-66
2023/07/14 10:27:31;;;;;;;7.85;3.92;;;22.00;99.90;;;;;;5067508;28;20043;-68
2023/07/14 10:30:26;;;;;;;8.10;3.17;;;22.20;99.90;;;;;;5083552;28;20023;-67
2023/07/14 10:32:55;;;;;;;4.80;3.37;;;22.20;99.90;;;;;;5069062;28;20174;-81
2023/07/14 10:35:28;;;;;;;10.93;3.15;;;22.30;99.90;;;;;;5085809;28;20032;-66
2023/07/14 10:38:26;;;;;;;9.27;3.92;;;22.40;99.90;;;;;;5082877;28;20024;-66
2023/07/14 10:41:03;;;;;;;5.47;3.15;;;22.30;99.90;;;;;;5076285;28;20088;-83
2023/07/14 10:43:38;;;;;;;6.80;3.17;;;22.40;99.90;;;;;;5072763;28;20317;-67
2023/07/14 10:46:10;;;;;;;13.63;3.42;;;22.30;99.90;;;;;;5081490;28;20354;-67
2023/07/14 10:49:05;;;;;;;8.07;3.08;;;22.20;99.90;;;;;;5088619;28;20342;-67
2023/07/14 10:51:42;;;;;;;4.47;2.55;;;22.20;99.90;;;;;;5085413;28;20034;-66
2023/07/14 10:54:19;;;;;;;5.47;2.78;;;22.00;99.90;;;;;;5081494;28;20028;-81
2023/07/14 10:56:57;;;;;;;5.25;2.33;;;21.90;99.90;;;;;;5084389;28;20024;-66
2023/07/14 10:59:34;;;;;;;10.50;3.10;;;21.80;99.90;;;;;;5083673;28;20103;-66
2023/07/14 11:02:19;;;;;;;15.18;3.35;;;21.80;99.90;;;;;;5081996;28;20117;-67
2023/07/14 11:04:49;;;;;;;8.75;2.88;;;21.80;99.90;;;;;;5080473;28;20259;-67
2023/07/14 11:07:23;;;;;;;5.55;3.10;;;21.80;99.90;;;;;;5082210;28;20028;-66
2023/07/14 11:09:49;;;;;;;3.55;2.40;;;21.90;99.90;;;;;;5083713;28;20299;-66
2023/07/14 11:12:28;;;;;;;5.03;2.25;;;21.90;99.90;;;;;;5083050;28;20078;-66
2023/07/14 11:15:16;;;;;;;6.57;2.70;;;21.90;99.90;;;;;;5085176;28;20406;-66
2023/07/14 11:18:09;;;;;;;6.28;2.85;;;22.00;99.90;;;;;;5084235;28;20051;-66
2023/07/14 11:21:12;;;;;;;4.22;2.25;;;22.00;99.90;;;;;;5085034;28;20019;-67
2023/07/14 11:23:56;;;;;;;2.47;1.80;;;22.10;99.90;;;;;;5085245;28;20023;-66
2023/07/14 11:26:25;;;;;;;5.88;2.58;;;22.10;99.90;;;;;;5088792;28;20042;-66
2023/07/14 11:29:10;;;;;;;2.45;1.73;;;22.00;99.90;;;;;;5069513;28;20339;-82
2023/07/14 11:31:59;;;;;;;5.07;2.00;;;21.90;99.90;;;;;;5084269;28;20055;-67
2023/07/14 11:34:33;;;;;;;3.33;2.17;;;21.80;99.90;;;;;;5081263;28;20024;-66
2023/07/14 11:37:17;;;;;;;3.75;2.20;;;21.70;99.90;;;;;;5083016;28;20028;-66
2023/07/14 11:39:52;;;;;;;7.93;2.90;;;21.40;99.90;;;;;;5082338;28;20154;-66
2023/07/14 11:42:25;;;;;;;5.25;1.85;;;21.20;99.90;;;;;;5077622;28;20515;-65
2023/07/14 11:44:53;;;;;;;2.63;1.83;;;21.10;99.90;;;;;;5089308;28;20028;-66
2023/07/14 11:47:33;;;;;;;7.53;2.35;;;21.20;99.90;;;;;;5076985;28;20072;-80
2023/07/14 11:50:02;;;;;;;3.08;2.00;;;21.20;99.90;;;;;;5065597;28;20020;-66
2023/07/14 11:52:30;;;;;;;7.40;2.63;;;21.20;99.90;;;;;;5091880;28;20481;-66
2023/07/14 11:55:29;;;;;;;3.33;1.45;;;21.30;99.90;;;;;;5091115;28;20020;-80
2023/07/14 11:58:22;;;;;;;5.03;2.40;;;21.50;99.90;;;;;;5070673;28;20084;-89
2023/07/14 12:00:58;;;;;;;6.35;1.55;;;21.60;99.90;;;;;;5078810;28;20032;-67
2023/07/14 12:03:35;;;;;;;4.90;1.60;;;21.50;99.90;;;;;;5081462;28;20031;-66
2023/07/14 12:06:44;;;;;;;4.88;1.90;;;21.60;99.90;;;;;;5090418;28;20035;-67
2023/07/14 12:09:13;;;;;;;2.63;1.88;;;21.70;99.90;;;;;;4991088;28;20421;-66
2023/07/14 12:11:39;;;;;;;4.22;2.10;;;21.80;99.90;;;;;;5090046;28;20032;-65
2023/07/14 12:14:30;;;;;;;11.47;2.83;;;21.80;99.90;;;;;;5091884;28;20027;-67
2023/07/14 12:16:57;;;;;;;5.38;2.75;;;21.90;99.90;;;;;;5091085;28;20035;-67
2023/07/14 12:19:27;;;;;;;4.80;2.47;;;22.00;99.90;;;;;;5093055;28;20036;-81
2023/07/14 12:22:09;;;;;;;7.55;2.03;;;22.00;99.90;;;;;;5088432;28;20048;-66
2023/07/14 12:24:42;;;;;;;5.20;2.25;;;22.10;99.90;;;;;;5084071;28;20035;-67
2023/07/14 12:27:26;;;;;;;3.22;2.08;;;22.30;99.90;;;;;;5088309;28;20145;-66
2023/07/14 12:30:03;;;;;;;6.47;2.13;;;22.40;99.90;;;;;;5091672;28;20359;-74
2023/07/14 12:32:28;;;;;;;;;;;22.60;99.90;;;;;;5095241;28;20378;-83
2023/07/14 12:34:56;;;;;;;3.67;2.05;;;22.60;99.90;;;;;;5088731;28;19943;-66
2023/07/14 12:37:23;;;;;;;5.72;2.22;;;22.60;99.90;;;;;;5085737;28;20674;-66
2023/07/14 12:39:52;;;;;;;6.50;1.95;;;22.60;99.90;;;;;;5095098;28;20020;-82
2023/07/14 12:42:18;;;;;;;5.18;2.13;;;22.70;99.90;;;;;;5077896;28;20296;-66
2023/07/14 12:44:45;;;;;;;3.50;1.60;;;22.70;99.90;;;;;;5085815;28;20043;-67
2023/07/14 12:47:17;;;;;;;3.35;2.08;;;22.80;99.90;;;;;;5089114;28;20036;-67
2023/07/14 12:49:47;;;;;;;6.03;2.72;;;22.90;99.90;;;;;;5088416;28;20043;-70
2023/07/14 12:52:41;;;;;;;4.78;2.55;;;23.00;99.90;;;;;;5075998;28;20423;-79
2023/07/14 12:55:13;;;;;;;3.42;1.70;;;23.10;99.90;;;;;;5085780;28;20123;-74
2023/07/14 12:57:39;;;;;;;6.43;2.65;;;23.30;99.90;;;;;;5080243;28;20027;-81
2023/07/14 13:00:23;;;;;;;;;;;23.40;99.90;;;;;;5070116;28;20013;-80
2023/07/14 13:02:50;;;;;;;6.50;3.00;;;23.50;99.90;;;;;;5092159;28;20314;-80
2023/07/14 13:05:22;;;;;;;3.67;2.38;;;23.50;99.90;;;;;;5078169;28;20032;-94
2023/07/14 13:07:54;;;;;;;4.03;2.17;;;23.40;99.90;;;;;;5095970;28;20124;-87
2023/07/14 13:10:25;;;;;;;5.95;2.88;;;23.20;99.90;;;;;;5093150;28;20431;-82